PTSA/KSA METAR and TAF weather

Enter ICAO airport designator
Station Type Date Time Source
PTSA METAR 2020/04/10 16:50 UTC NOAA

PTSA 101650Z 28012KT 7SM -SHRA BKN010TCU BKN130 OVC300 25/24 A2985 RMK TCU OHD FIRST


Station Type Date Time Source
PTSA Decoded METAR 2020/04/10 16:50 UTC NOAA

Kosrae Island, Kosrae Airport, Micronesia, Federated States of (PTSA) 05-21N 162-57E
Apr 10, 2020 - 12:50 PM EDT / 2020.04.10 1650 UTC
Wind: from the W (280 degrees) at 14 MPH (12 KT):0
Visibility: 7 mile(s):0
Sky conditions: overcast
Weather: light rain showers; Towering cumulus clouds observed
Temperature: 77 F (25 C)
Dew Point: 75 F (24 C)
Relative Humidity: 94%
Pressure (altimeter): 29.85 in. Hg (1010 hPa)
ob: PTSA 101650Z 28012KT 7SM -SHRA BKN010TCU BKN130 OVC300 25/24 A2985 RMK TCU OHD FIRST
cycle: 17

Station Type Date Time Source
PTSA TAF 2020/04/09 02:49 UTC NOAA

TAF
AMD PTSA 090134Z 0902/0924 06011KT P6SM VCSH SCT020
TEMPO 0902/0906 5SM -SHRA BKN016

Example: see airport list